Terminal Aerodrome Forecast
Issued by NWS

Home | Current Version | Previous Version | Text Only | Print | Product List | Glossary On
Versions: 1 2 3 4 5 6 7 8 9 10 11 12 13 14 15
962
FTUS45 KVEF 052053 AAA
TAFHND
TAF AMD
KHND 052053Z 0521/0618 17020G30KT P6SM BKN250
     FM060300 20015G25KT P6SM SCT120 BKN250
     FM060500 20012G20KT P6SM VCTS SCT080 BKN120CB
      TEMPO 0606/0610 VRB20G30KT -TSRA SCT060 BKN080CB=

USA.gov is the U.S. government's official web portal to all federal, state and local government web resources and services.